createdAt,value
2019-06-15T00:00:08.312Z,63.00
2019-06-15T00:01:13.418Z,63.10
2019-06-15T00:02:19.869Z,63.90
2019-06-15T00:03:25.263Z,63.20
2019-06-15T00:04:31.402Z,63.60
2019-06-15T00:05:36.696Z,63.70
2019-06-15T00:06:42.701Z,64.40
2019-06-15T00:07:47.849Z,63.60
2019-06-15T00:08:54.081Z,63.70
2019-06-15T00:09:59.440Z,63.90
2019-06-15T00:11:05.457Z,64.00
2019-06-15T00:12:11.186Z,64.20
2019-06-15T00:13:17.115Z,64.10
2019-06-15T00:14:22.554Z,64.20
2019-06-15T00:15:28.493Z,64.00
2019-06-15T00:16:33.949Z,63.90
2019-06-15T00:17:40.247Z,63.90
2019-06-15T00:18:45.558Z,64.00
2019-06-15T00:19:51.797Z,64.30
2019-06-15T00:20:56.834Z,64.50
2019-06-15T00:22:02.767Z,64.50
2019-06-15T00:23:07.842Z,64.40
2019-06-15T00:24:13.710Z,64.40
2019-06-15T00:25:19.668Z,64.30
2019-06-15T00:26:25.928Z,64.10
2019-06-15T00:27:31.052Z,64.90
2019-06-15T00:28:37.321Z,64.10
2019-06-15T00:29:42.445Z,63.90
2019-06-15T00:30:48.646Z,64.60
2019-06-15T00:31:53.969Z,65.00
2019-06-15T00:33:00.199Z,64.90
2019-06-15T00:34:05.534Z,64.90
2019-06-15T00:35:12.821Z,64.80
2019-06-15T00:36:18.109Z,64.90
2019-06-15T00:37:24.053Z,64.90
2019-06-15T00:38:29.837Z,64.90
2019-06-15T00:39:36.124Z,65.00
2019-06-15T00:40:41.213Z,64.90
2019-06-15T00:41:47.483Z,64.80
2019-06-15T00:42:52.558Z,65.50
2019-06-15T00:43:58.817Z,64.70
2019-06-15T00:45:04.879Z,65.50
2019-06-15T00:46:11.264Z,64.50
2019-06-15T00:47:16.731Z,65.50
2019-06-15T00:48:22.626Z,65.50
2019-06-15T00:49:28.020Z,64.70
2019-06-15T00:50:34.208Z,64.80
2019-06-15T00:51:39.168Z,64.80
2019-06-15T00:52:45.436Z,64.90
2019-06-15T00:53:50.842Z,65.00
2019-06-15T00:54:56.793Z,64.90
2019-06-15T00:56:02.032Z,64.80
2019-06-15T00:57:08.523Z,64.80
2019-06-15T00:58:13.732Z,64.70
2019-06-15T00:59:20.149Z,64.80
2019-06-15T01:00:33.109Z,64.80
2019-06-15T01:01:42.162Z,65.80
2019-06-15T01:02:49.078Z,65.00
2019-06-15T01:03:58.619Z,65.10
2019-06-15T01:05:04.896Z,65.20
2019-06-15T01:06:12.090Z,65.30
2019-06-15T01:07:19.225Z,66.00
2019-06-15T01:08:29.979Z,65.20
2019-06-15T01:09:40.358Z,65.30
2019-06-15T01:10:49.776Z,65.20
2019-06-15T01:11:54.950Z,65.10
2019-06-15T01:13:01.146Z,65.10
2019-06-15T01:14:06.330Z,65.10
2019-06-15T01:15:12.654Z,65.10
2019-06-15T01:16:17.850Z,65.00
2019-06-15T01:17:24.143Z,65.00
2019-06-15T01:18:29.471Z,65.10
2019-06-15T01:19:36.013Z,65.30
2019-06-15T01:20:41.385Z,65.50
2019-06-15T01:21:47.184Z,66.30
2019-06-15T01:22:52.465Z,65.50
2019-06-15T01:23:58.345Z,65.60
2019-06-15T01:25:05.806Z,65.60
2019-06-15T01:26:11.172Z,65.70
2019-06-15T01:27:16.658Z,65.60
2019-06-15T01:28:22.779Z,65.50
2019-06-15T01:29:28.266Z,65.40
2019-06-15T01:30:34.811Z,65.50
2019-06-15T01:31:40.170Z,65.50
2019-06-15T01:32:46.268Z,65.50
2019-06-15T01:33:51.279Z,65.20
2019-06-15T01:34:57.076Z,65.10
2019-06-15T01:36:02.776Z,65.00
2019-06-15T01:37:08.748Z,65.00
2019-06-15T01:38:14.043Z,65.90
2019-06-15T01:39:19.923Z,65.20
2019-06-15T01:40:25.435Z,65.30
2019-06-15T01:41:31.306Z,65.30
2019-06-15T01:42:36.678Z,65.40
2019-06-15T01:43:42.817Z,65.10
2019-06-15T01:44:47.831Z,65.20
2019-06-15T01:45:53.633Z,65.00
2019-06-15T01:46:58.814Z,65.00
2019-06-15T01:48:05.056Z,65.70
2019-06-15T01:49:11.027Z,64.80
2019-06-15T01:50:16.977Z,64.60
2019-06-15T01:51:22.142Z,65.40
2019-06-15T01:52:28.575Z,64.60
2019-06-15T01:53:34.132Z,64.50
2019-06-15T01:54:40.443Z,64.60
2019-06-15T01:55:45.840Z,64.60
2019-06-15T01:56:52.053Z,64.50
2019-06-15T01:57:57.851Z,64.50
2019-06-15T01:59:04.043Z,64.60
2019-06-15T02:00:12.029Z,64.40
2019-06-15T02:01:25.069Z,64.50
2019-06-15T02:02:34.989Z,64.50
2019-06-15T02:03:40.915Z,64.30
2019-06-15T02:04:46.274Z,64.90
2019-06-15T02:05:52.221Z,63.50
2019-06-15T02:07:00.143Z,64.10
2019-06-15T02:08:06.238Z,64.00
2019-06-15T02:09:11.347Z,64.10
2019-06-15T02:10:20.318Z,63.90
2019-06-15T02:11:25.608Z,64.00
2019-06-15T02:12:33.437Z,64.00
2019-06-15T02:13:38.903Z,63.90
2019-06-15T02:14:44.816Z,63.90
2019-06-15T02:15:49.987Z,64.90
2019-06-15T02:16:56.196Z,64.00
2019-06-15T02:18:02.190Z,63.80
2019-06-15T02:19:08.825Z,63.80
2019-06-15T02:20:14.594Z,63.60
2019-06-15T02:21:20.834Z,63.70
2019-06-15T02:22:25.949Z,63.60
2019-06-15T02:23:32.138Z,63.50
2019-06-15T02:24:37.432Z,63.60
2019-06-15T02:25:43.632Z,63.50
2019-06-15T02:26:49.345Z,63.50
2019-06-15T02:27:56.582Z,63.60
2019-06-15T02:29:01.917Z,63.50
2019-06-15T02:30:08.827Z,63.70
2019-06-15T02:31:14.269Z,63.60
2019-06-15T02:32:20.212Z,63.60
2019-06-15T02:33:25.381Z,63.50
2019-06-15T02:34:31.657Z,63.60
2019-06-15T02:35:36.855Z,63.60
2019-06-15T02:36:42.707Z,63.70
2019-06-15T02:37:47.723Z,63.80
2019-06-15T02:38:53.873Z,63.80
2019-06-15T02:39:58.881Z,63.80
2019-06-15T02:41:05.123Z,63.80
2019-06-15T02:42:10.281Z,64.00
2019-06-15T02:43:16.175Z,64.00
2019-06-15T02:44:21.326Z,64.20
2019-06-15T02:45:27.712Z,64.10
2019-06-15T02:46:32.914Z,64.40
2019-06-15T02:47:38.911Z,64.40
2019-06-15T02:48:44.526Z,63.90
2019-06-15T02:49:50.386Z,63.90
2019-06-15T02:50:56.213Z,63.90
2019-06-15T02:52:02.678Z,63.90
2019-06-15T02:53:07.839Z,63.90
2019-06-15T02:54:13.753Z,63.90
2019-06-15T02:55:18.941Z,64.70
2019-06-15T02:56:25.175Z,63.90
2019-06-15T02:57:30.633Z,63.80
2019-06-15T02:58:36.865Z,63.90
2019-06-15T02:59:42.501Z,64.60
2019-06-15T03:01:07.664Z,63.80
2019-06-15T03:02:13.158Z,63.90
2019-06-15T03:03:20.261Z,63.80
2019-06-15T03:04:25.468Z,63.80
2019-06-15T03:05:31.357Z,63.80
2019-06-15T03:06:36.640Z,63.80
2019-06-15T03:07:43.595Z,63.80
2019-06-15T03:08:48.919Z,63.70
2019-06-15T03:09:55.613Z,63.70
2019-06-15T03:11:00.780Z,64.00
2019-06-15T03:12:07.537Z,64.00
2019-06-15T03:13:14.486Z,64.00
2019-06-15T03:14:20.465Z,63.90
2019-06-15T03:15:25.636Z,63.70
2019-06-15T03:16:31.823Z,63.80
2019-06-15T03:17:36.957Z,64.80
2019-06-15T03:18:43.313Z,64.10
2019-06-15T03:19:48.798Z,64.40
2019-06-15T03:20:54.576Z,64.30
2019-06-15T03:21:59.909Z,64.30
2019-06-15T03:23:06.238Z,64.40
2019-06-15T03:24:11.461Z,64.30
2019-06-15T03:25:17.513Z,64.10
2019-06-15T03:26:22.613Z,64.30
2019-06-15T03:27:29.103Z,64.10
2019-06-15T03:28:34.622Z,64.80
2019-06-15T03:29:40.812Z,64.20
2019-06-15T03:30:45.973Z,64.30
2019-06-15T03:31:51.776Z,64.40
2019-06-15T03:32:56.997Z,64.40
2019-06-15T03:34:03.106Z,64.50
2019-06-15T03:35:10.924Z,65.30
2019-06-15T03:36:17.121Z,64.40
2019-06-15T03:37:22.059Z,65.30
2019-06-15T03:38:27.914Z,65.30
2019-06-15T03:39:33.019Z,64.70
2019-06-15T03:40:39.412Z,64.80
2019-06-15T03:41:44.736Z,64.80
2019-06-15T03:42:50.696Z,64.80
2019-06-15T03:43:56.370Z,65.00
2019-06-15T03:45:02.194Z,65.00
2019-06-15T03:46:07.444Z,65.30
2019-06-15T03:47:13.396Z,64.90
2019-06-15T03:48:18.569Z,64.90
2019-06-15T03:49:24.993Z,65.00
2019-06-15T03:50:30.699Z,65.00
2019-06-15T03:51:36.841Z,65.00
2019-06-15T03:52:42.021Z,64.90
2019-06-15T03:53:48.412Z,65.00
2019-06-15T03:54:54.005Z,65.10
2019-06-15T03:55:59.871Z,65.30
2019-06-15T03:57:05.027Z,65.20
2019-06-15T03:58:10.907Z,65.30
2019-06-15T03:59:16.008Z,65.30
2019-06-15T04:00:45.733Z,65.40
2019-06-15T04:01:51.667Z,65.50
2019-06-15T04:02:57.543Z,65.50
2019-06-15T04:04:03.256Z,65.50
2019-06-15T04:05:09.128Z,65.60
2019-06-15T04:06:14.628Z,65.70
2019-06-15T04:07:20.513Z,66.60
2019-06-15T04:08:26.126Z,65.90
2019-06-15T04:09:32.241Z,66.80
2019-06-15T04:10:37.866Z,66.10
2019-06-15T04:11:43.650Z,66.10
2019-06-15T04:12:49.027Z,66.20
2019-06-15T04:13:55.505Z,67.10
2019-06-15T04:15:00.833Z,66.30
2019-06-15T04:16:06.727Z,66.40
2019-06-15T04:17:11.850Z,66.20
2019-06-15T04:18:18.008Z,66.10
2019-06-15T04:19:23.092Z,66.00
2019-06-15T04:20:29.400Z,66.20
2019-06-15T04:21:34.692Z,66.40
2019-06-15T04:22:40.502Z,66.60
2019-06-15T04:23:46.142Z,66.50
2019-06-15T04:24:52.877Z,66.50
2019-06-15T04:25:57.962Z,66.50
2019-06-15T04:27:04.732Z,66.70
2019-06-15T04:28:09.891Z,66.90
2019-06-15T04:29:16.023Z,66.80
2019-06-15T04:30:21.549Z,67.10
2019-06-15T04:31:27.341Z,67.20
2019-06-15T04:32:32.719Z,67.20
2019-06-15T04:33:39.242Z,67.10
2019-06-15T04:34:44.476Z,67.20
2019-06-15T04:35:50.631Z,67.30
2019-06-15T04:36:56.488Z,67.40
2019-06-15T04:38:02.873Z,67.20
2019-06-15T04:39:08.703Z,67.20
2019-06-15T04:40:14.658Z,67.30
2019-06-15T04:41:20.062Z,67.40
2019-06-15T04:42:26.563Z,67.50
2019-06-15T04:43:31.744Z,67.60
2019-06-15T04:44:38.196Z,67.70
2019-06-15T04:45:43.575Z,67.70
2019-06-15T04:46:49.777Z,67.80
2019-06-15T04:47:55.134Z,67.70
2019-06-15T04:49:01.459Z,67.50
2019-06-15T04:50:07.678Z,67.40
2019-06-15T04:51:13.589Z,67.30
2019-06-15T04:52:18.679Z,67.50
2019-06-15T04:53:24.870Z,67.70
2019-06-15T04:54:29.959Z,67.80
2019-06-15T04:55:35.953Z,67.90
2019-06-15T04:56:50.472Z,67.80
2019-06-15T04:57:49.245Z,67.70
2019-06-15T04:58:54.546Z,67.70
2019-06-15T05:00:00.604Z,68.30
2019-06-15T05:01:07.351Z,67.90
2019-06-15T05:02:13.614Z,68.00
2019-06-15T05:03:19.432Z,68.10
2019-06-15T05:04:25.539Z,68.10
2019-06-15T05:05:30.710Z,68.40
2019-06-15T05:06:39.317Z,68.70
2019-06-15T05:07:44.486Z,68.80
2019-06-15T05:08:50.519Z,68.90
2019-06-15T05:09:55.520Z,69.10
2019-06-15T05:11:03.669Z,69.60
2019-06-15T05:12:08.913Z,70.00
2019-06-15T05:13:15.348Z,69.80
2019-06-15T05:14:20.489Z,69.30
2019-06-15T05:15:26.310Z,69.30
2019-06-15T05:16:31.741Z,69.30
2019-06-15T05:17:37.695Z,69.30
2019-06-15T05:18:43.198Z,69.50
2019-06-15T05:19:49.302Z,69.40
2019-06-15T05:20:54.459Z,69.60
2019-06-15T05:22:00.523Z,69.40
2019-06-15T05:23:06.163Z,69.40
2019-06-15T05:24:12.711Z,69.50
2019-06-15T05:25:17.746Z,69.60
2019-06-15T05:26:23.847Z,69.90
2019-06-15T05:27:29.038Z,70.10
2019-06-15T05:28:35.284Z,70.10
2019-06-15T05:29:40.383Z,70.80
2019-06-15T05:30:46.258Z,70.00
2019-06-15T05:31:51.687Z,70.00
2019-06-15T05:32:57.483Z,69.90
2019-06-15T05:34:03.057Z,69.70
2019-06-15T05:35:11.083Z,70.30
2019-06-15T05:36:16.255Z,69.20
2019-06-15T05:37:22.483Z,69.20
2019-06-15T05:38:27.790Z,69.30
2019-06-15T05:39:33.875Z,69.30
2019-06-15T05:40:39.618Z,69.40
2019-06-15T05:41:45.543Z,69.40
2019-06-15T05:42:50.898Z,69.50
2019-06-15T05:43:57.025Z,69.70
2019-06-15T05:45:02.593Z,70.20
2019-06-15T05:46:08.933Z,70.30
2019-06-15T05:47:14.395Z,70.20
2019-06-15T05:48:20.346Z,69.80
2019-06-15T05:49:25.360Z,70.40
2019-06-15T05:50:31.200Z,69.50
2019-06-15T05:51:36.720Z,69.50
2019-06-15T05:52:42.776Z,69.50
2019-06-15T05:53:48.181Z,69.80
2019-06-15T05:54:53.913Z,70.00
2019-06-15T05:55:58.910Z,70.10
2019-06-15T05:57:05.071Z,70.10
2019-06-15T05:58:10.359Z,71.00
2019-06-15T05:59:16.395Z,70.50
2019-06-15T06:00:21.608Z,71.40
2019-06-15T06:01:27.763Z,71.50
2019-06-15T06:02:32.884Z,70.60
2019-06-15T06:03:39.451Z,70.10
2019-06-15T06:04:44.982Z,70.00
2019-06-15T06:05:51.104Z,69.90
2019-06-15T06:06:56.868Z,69.90
2019-06-15T06:08:02.681Z,69.90
2019-06-15T06:09:08.576Z,70.00
2019-06-15T06:10:15.589Z,70.40
2019-06-15T06:11:20.993Z,70.60
2019-06-15T06:12:27.243Z,70.60
2019-06-15T06:13:32.819Z,70.60
2019-06-15T06:14:38.616Z,70.70
2019-06-15T06:15:44.021Z,70.80
2019-06-15T06:16:49.890Z,70.70
2019-06-15T06:17:55.407Z,70.80
2019-06-15T06:19:01.378Z,70.80
2019-06-15T06:20:08.596Z,71.60
2019-06-15T06:21:14.810Z,70.80
2019-06-15T06:22:20.244Z,71.70
2019-06-15T06:23:26.048Z,71.50
2019-06-15T06:24:30.994Z,70.40
2019-06-15T06:25:36.802Z,70.50
2019-06-15T06:26:41.751Z,70.20
2019-06-15T06:27:47.834Z,70.00
2019-06-15T06:28:57.514Z,69.90
2019-06-15T06:30:02.234Z,69.50
2019-06-15T06:31:07.407Z,69.40
2019-06-15T06:32:13.680Z,69.40
2019-06-15T06:33:18.762Z,69.60
2019-06-15T06:34:24.571Z,69.50
2019-06-15T06:35:30.312Z,70.20
2019-06-15T06:36:36.534Z,69.20
2019-06-15T06:37:42.411Z,69.10
2019-06-15T06:38:48.628Z,69.00
2019-06-15T06:39:54.186Z,69.00
2019-06-15T06:41:00.067Z,69.00
2019-06-15T06:42:05.572Z,68.90
2019-06-15T06:43:11.951Z,68.90
2019-06-15T06:44:17.152Z,69.00
2019-06-15T06:45:23.686Z,69.10
2019-06-15T06:46:29.133Z,68.90
2019-06-15T06:47:35.015Z,68.80
2019-06-15T06:48:40.556Z,68.50
2019-06-15T06:49:46.851Z,68.70
2019-06-15T06:50:51.876Z,68.70
2019-06-15T06:51:57.846Z,68.60
2019-06-15T06:53:04.063Z,68.60
2019-06-15T06:54:10.122Z,68.60
2019-06-15T06:55:15.545Z,68.50
2019-06-15T06:56:21.984Z,68.70
2019-06-15T06:57:27.672Z,68.80
2019-06-15T06:58:33.779Z,68.60
2019-06-15T06:59:39.134Z,68.80
2019-06-15T07:00:45.626Z,68.40
2019-06-15T07:01:51.278Z,68.20
2019-06-15T07:02:57.194Z,68.80
2019-06-15T07:04:02.225Z,68.10
2019-06-15T07:05:09.068Z,68.00
2019-06-15T07:06:14.266Z,67.80
2019-06-15T07:07:20.281Z,67.50
2019-06-15T07:08:25.953Z,67.10
2019-06-15T07:09:32.421Z,67.10
2019-06-15T07:10:38.007Z,67.20
2019-06-15T07:11:44.286Z,67.10
2019-06-15T07:12:50.095Z,68.00
2019-06-15T07:13:55.905Z,67.20
2019-06-15T07:15:04.626Z,66.90
2019-06-15T07:16:09.193Z,66.80
2019-06-15T07:17:14.382Z,66.90
2019-06-15T07:18:20.433Z,66.70
2019-06-15T07:19:25.615Z,66.70
2019-06-15T07:20:31.771Z,66.60
2019-06-15T07:21:36.955Z,66.50
2019-06-15T07:22:42.838Z,66.20
2019-06-15T07:23:48.161Z,67.00
2019-06-15T07:24:54.519Z,67.10
2019-06-15T07:26:00.223Z,66.30
2019-06-15T07:27:06.094Z,66.00
2019-06-15T07:28:11.482Z,65.80
2019-06-15T07:29:17.969Z,65.90
2019-06-15T07:30:23.623Z,66.10
2019-06-15T07:31:30.051Z,66.30
2019-06-15T07:32:35.228Z,66.50
2019-06-15T07:33:42.113Z,66.50
2019-06-15T07:34:47.566Z,66.50
2019-06-15T07:35:53.535Z,66.40
2019-06-15T07:37:01.490Z,66.40
2019-06-15T07:38:06.053Z,66.40
2019-06-15T07:39:11.150Z,66.60
2019-06-15T07:40:17.084Z,66.60
2019-06-15T07:41:22.687Z,66.70
2019-06-15T07:42:29.132Z,66.60
2019-06-15T07:43:34.443Z,67.10
2019-06-15T07:44:40.877Z,67.50
2019-06-15T07:45:46.670Z,67.50
2019-06-15T07:46:52.979Z,67.40
2019-06-15T07:47:58.150Z,67.20
2019-06-15T07:49:05.076Z,67.10
2019-06-15T07:50:11.485Z,66.90
2019-06-15T07:51:17.710Z,66.60
2019-06-15T07:52:23.495Z,66.40
2019-06-15T07:53:29.714Z,66.40
2019-06-15T07:54:36.263Z,66.30
2019-06-15T07:55:42.945Z,66.00
2019-06-15T07:56:48.819Z,66.10
2019-06-15T07:57:54.721Z,65.80
2019-06-15T07:59:00.066Z,66.10
2019-06-15T08:00:07.025Z,66.20
2019-06-15T08:01:12.468Z,66.90
2019-06-15T08:02:18.654Z,65.70
2019-06-15T08:03:23.620Z,65.70
2019-06-15T08:04:29.779Z,65.70
2019-06-15T08:05:35.259Z,65.30
2019-06-15T08:06:41.081Z,65.10
2019-06-15T08:07:46.984Z,65.10
2019-06-15T08:08:53.170Z,65.20
2019-06-15T08:09:58.486Z,65.50
2019-06-15T08:11:04.445Z,65.40
2019-06-15T08:12:10.090Z,65.10
2019-06-15T08:13:16.549Z,65.30
2019-06-15T08:14:22.319Z,65.00
2019-06-15T08:15:28.472Z,65.60
2019-06-15T08:16:33.658Z,65.60
2019-06-15T08:17:39.990Z,66.10
2019-06-15T08:18:45.099Z,66.40
2019-06-15T08:19:51.429Z,66.20
2019-06-15T08:20:56.793Z,66.40
2019-06-15T08:22:03.066Z,66.10
2019-06-15T08:23:09.087Z,66.60
2019-06-15T08:24:15.780Z,65.10
2019-06-15T08:25:21.321Z,64.60
2019-06-15T08:26:27.180Z,65.00
2019-06-15T08:27:32.248Z,64.70
2019-06-15T08:28:40.523Z,64.90
2019-06-15T08:29:45.089Z,64.50
2019-06-15T08:30:50.955Z,64.30
2019-06-15T08:31:56.238Z,64.30
2019-06-15T08:33:02.325Z,64.20
2019-06-15T08:34:07.945Z,64.60
2019-06-15T08:35:14.009Z,63.70
2019-06-15T08:36:19.309Z,63.40
2019-06-15T08:37:25.164Z,62.90
2019-06-15T08:38:31.205Z,62.90
2019-06-15T08:39:37.048Z,62.90
2019-06-15T08:40:42.619Z,62.40
2019-06-15T08:41:49.338Z,62.50
2019-06-15T08:42:55.629Z,62.60
2019-06-15T08:44:02.168Z,62.10
2019-06-15T08:45:08.283Z,63.00
2019-06-15T08:46:14.539Z,62.30
2019-06-15T08:47:20.086Z,61.30
2019-06-15T08:48:25.986Z,61.80
2019-06-15T08:49:31.113Z,61.00
2019-06-15T08:50:37.377Z,60.90
2019-06-15T08:51:43.204Z,61.00
2019-06-15T08:52:49.389Z,60.90
2019-06-15T08:53:54.882Z,60.70
2019-06-15T08:55:00.962Z,60.10
2019-06-15T08:56:08.409Z,59.60
2019-06-15T08:57:14.360Z,59.40
2019-06-15T08:58:20.266Z,59.40
2019-06-15T08:59:26.855Z,59.40
2019-06-15T09:00:32.061Z,59.90
2019-06-15T09:01:38.020Z,59.00
2019-06-15T09:02:43.538Z,58.80
2019-06-15T09:03:49.622Z,59.40
2019-06-15T09:04:55.702Z,58.90
2019-06-15T09:06:01.682Z,59.30
2019-06-15T09:07:06.925Z,59.60
2019-06-15T09:08:13.146Z,59.10
2019-06-15T09:09:18.652Z,58.80
2019-06-15T09:10:24.521Z,58.70
2019-06-15T09:11:30.069Z,58.70
2019-06-15T09:12:36.262Z,58.90
2019-06-15T09:13:41.446Z,59.30
2019-06-15T09:14:47.410Z,58.90
2019-06-15T09:15:54.099Z,58.80
2019-06-15T09:17:00.409Z,59.50
2019-06-15T09:18:05.665Z,58.70
2019-06-15T09:19:11.621Z,58.80
2019-06-15T09:20:17.260Z,58.80
2019-06-15T09:21:23.640Z,59.00
2019-06-15T09:22:32.121Z,58.90
2019-06-15T09:23:38.656Z,58.90
2019-06-15T09:24:44.147Z,58.80
2019-06-15T09:25:50.557Z,58.60
2019-06-15T09:26:55.960Z,58.60
2019-06-15T09:28:02.058Z,58.40
2019-06-15T09:29:11.143Z,58.40
2019-06-15T09:30:15.057Z,58.10
2019-06-15T09:31:20.765Z,57.90
2019-06-15T09:32:26.598Z,57.70
2019-06-15T09:33:31.784Z,57.80
2019-06-15T09:34:38.220Z,57.60
2019-06-15T09:35:43.702Z,58.00
2019-06-15T09:36:49.961Z,57.50
2019-06-15T09:37:55.148Z,57.80
2019-06-15T09:39:01.024Z,57.80
2019-06-15T09:40:07.188Z,57.90
2019-06-15T09:41:13.427Z,58.10
2019-06-15T09:42:18.588Z,57.80
2019-06-15T09:43:24.815Z,57.80
2019-06-15T09:44:30.238Z,57.80
2019-06-15T09:45:36.742Z,57.70
2019-06-15T09:46:41.870Z,57.80
2019-06-15T09:47:48.724Z,57.80
2019-06-15T09:48:54.192Z,58.00
2019-06-15T09:50:00.138Z,58.20
2019-06-15T09:51:05.355Z,57.80
2019-06-15T09:52:11.733Z,58.10
2019-06-15T09:53:16.889Z,58.50
2019-06-15T09:54:22.907Z,58.40
2019-06-15T09:55:28.083Z,57.90
2019-06-15T09:56:34.000Z,58.10
2019-06-15T09:57:39.615Z,58.20
2019-06-15T09:58:45.885Z,57.90
2019-06-15T09:59:51.408Z,57.70
2019-06-15T10:00:57.689Z,57.90
2019-06-15T10:02:02.894Z,58.10
2019-06-15T10:03:09.349Z,57.70
2019-06-15T10:04:14.552Z,57.40
2019-06-15T10:05:20.500Z,57.40
2019-06-15T10:06:26.017Z,57.20
2019-06-15T10:07:32.242Z,57.20
2019-06-15T10:08:38.307Z,57.10
2019-06-15T10:09:44.505Z,56.90
2019-06-15T10:10:49.720Z,56.70
2019-06-15T10:11:55.679Z,56.50
2019-06-15T10:13:00.842Z,56.10
2019-06-15T10:14:07.171Z,56.80
2019-06-15T10:15:12.974Z,56.50
2019-06-15T10:16:19.242Z,57.20
2019-06-15T10:17:24.687Z,56.50
2019-06-15T10:18:30.900Z,56.10
2019-06-15T10:19:36.339Z,56.30
2019-06-15T10:20:42.649Z,56.30
2019-06-15T10:21:48.122Z,56.10
2019-06-15T10:22:54.303Z,56.20
2019-06-15T10:23:59.560Z,56.40
2019-06-15T10:25:05.672Z,56.10
2019-06-15T10:26:10.809Z,55.90
2019-06-15T10:27:16.764Z,56.00
2019-06-15T10:28:22.351Z,56.10
2019-06-15T10:29:41.179Z,55.80
2019-06-15T10:30:35.440Z,55.70
2019-06-15T10:31:41.428Z,56.20
2019-06-15T10:32:46.890Z,56.90
2019-06-15T10:33:52.896Z,56.80
2019-06-15T10:34:58.289Z,57.00
2019-06-15T10:36:04.624Z,57.30
2019-06-15T10:37:10.114Z,57.00
2019-06-15T10:38:16.675Z,57.10
2019-06-15T10:39:21.802Z,57.10
2019-06-15T10:40:28.033Z,57.00
2019-06-15T10:41:33.261Z,56.80
2019-06-15T10:42:39.244Z,56.60
2019-06-15T10:43:44.434Z,56.30
2019-06-15T10:44:50.700Z,56.30
2019-06-15T10:45:56.234Z,56.60
2019-06-15T10:47:02.539Z,56.30
2019-06-15T10:48:07.712Z,56.40
2019-06-15T10:49:13.643Z,56.40
2019-06-15T10:50:19.043Z,56.50
2019-06-15T10:51:25.355Z,56.80
2019-06-15T10:52:30.557Z,56.70
2019-06-15T10:53:36.742Z,56.70
2019-06-15T10:54:42.243Z,56.60
2019-06-15T10:55:48.764Z,56.90
2019-06-15T10:56:53.960Z,56.60
2019-06-15T10:57:59.950Z,56.40
2019-06-15T10:59:05.313Z,56.20
2019-06-15T11:00:14.520Z,56.70
2019-06-15T11:01:20.029Z,56.20
2019-06-15T11:02:26.029Z,56.70
2019-06-15T11:03:31.908Z,56.40
2019-06-15T11:04:38.755Z,56.30
2019-06-15T11:05:43.962Z,56.50
2019-06-15T11:06:49.954Z,55.60
2019-06-15T11:07:55.506Z,55.30
2019-06-15T11:09:01.812Z,55.20
2019-06-15T11:10:09.971Z,55.40
2019-06-15T11:11:23.626Z,55.30
2019-06-15T11:12:45.131Z,55.10
2019-06-15T11:13:37.622Z,55.70
2019-06-15T11:14:42.773Z,54.40
2019-06-15T11:15:49.772Z,54.20
2019-06-15T11:16:55.218Z,53.20
2019-06-15T11:18:01.701Z,53.20
2019-06-15T11:19:07.339Z,53.10
2019-06-15T11:20:15.031Z,53.10
2019-06-15T11:21:20.598Z,53.60
2019-06-15T11:22:27.299Z,52.90
2019-06-15T11:23:32.890Z,52.70
2019-06-15T11:24:39.164Z,52.90
2019-06-15T11:25:44.620Z,53.90
2019-06-15T11:26:50.954Z,53.90
2019-06-15T11:27:56.204Z,53.30
2019-06-15T11:29:02.238Z,53.40
2019-06-15T11:30:13.469Z,54.00
2019-06-15T11:31:15.747Z,52.70
2019-06-15T11:32:21.682Z,52.50
2019-06-15T11:33:27.713Z,52.10
2019-06-15T11:34:32.869Z,51.10
2019-06-15T11:35:38.977Z,51.60
2019-06-15T11:36:44.541Z,51.50
2019-06-15T11:37:50.528Z,51.30
2019-06-15T11:38:55.799Z,51.10
2019-06-15T11:40:01.915Z,50.50
2019-06-15T11:41:07.644Z,50.40
2019-06-15T11:42:13.625Z,51.00
2019-06-15T11:43:19.128Z,49.70
2019-06-15T11:44:25.609Z,49.80
2019-06-15T11:45:31.196Z,49.50
2019-06-15T11:46:37.480Z,49.60
2019-06-15T11:47:42.966Z,49.20
2019-06-15T11:48:49.542Z,48.80
2019-06-15T11:49:55.420Z,48.80
2019-06-15T11:51:02.485Z,48.80
2019-06-15T11:52:07.840Z,48.70
2019-06-15T11:53:13.924Z,48.00
2019-06-15T11:54:19.408Z,48.10
2019-06-15T11:55:38.571Z,47.80
2019-06-15T11:56:32.861Z,47.60
2019-06-15T11:57:39.155Z,48.30
2019-06-15T11:58:44.387Z,47.10
2019-06-15T11:59:50.405Z,46.90
2019-06-15T12:00:55.632Z,46.80
2019-06-15T12:02:01.754Z,47.00
2019-06-15T12:03:06.958Z,46.20
2019-06-15T12:04:13.227Z,45.70
2019-06-15T12:05:18.729Z,45.60
2019-06-15T12:06:25.018Z,45.80
2019-06-15T12:07:30.524Z,45.70
2019-06-15T12:08:36.622Z,46.00
2019-06-15T12:09:41.901Z,45.90
2019-06-15T12:10:48.867Z,46.30
2019-06-15T12:11:54.018Z,46.60
2019-06-15T12:13:00.326Z,47.20
2019-06-15T12:14:05.864Z,46.40
2019-06-15T12:15:12.270Z,46.10
2019-06-15T12:16:17.482Z,47.00
2019-06-15T12:17:23.464Z,46.60
2019-06-15T12:18:28.769Z,46.50
2019-06-15T12:19:35.025Z,46.20
2019-06-15T12:20:40.227Z,46.00
2019-06-15T12:21:46.641Z,45.90
2019-06-15T12:22:52.131Z,45.50
2019-06-15T12:23:58.174Z,44.90
2019-06-15T12:25:03.408Z,45.90
2019-06-15T12:26:09.360Z,45.10
2019-06-15T12:27:14.993Z,45.00
2019-06-15T12:28:21.047Z,45.40
2019-06-15T12:29:26.414Z,44.70
2019-06-15T12:30:47.094Z,44.30
2019-06-15T12:31:49.780Z,44.30
2019-06-15T12:32:56.269Z,44.80
2019-06-15T12:34:01.403Z,44.70
2019-06-15T12:35:07.941Z,44.80
2019-06-15T12:36:18.986Z,44.50
2019-06-15T12:37:21.770Z,44.10
2019-06-15T12:38:27.252Z,44.50
2019-06-15T12:39:33.124Z,44.80
2019-06-15T12:40:38.331Z,44.00
2019-06-15T12:41:44.843Z,43.90
2019-06-15T12:42:49.903Z,43.70
2019-06-15T12:43:56.151Z,43.30
2019-06-15T12:45:02.098Z,43.50
2019-06-15T12:46:08.024Z,43.70
2019-06-15T12:47:13.204Z,43.70
2019-06-15T12:48:19.372Z,44.50
2019-06-15T12:49:24.897Z,44.40
2019-06-15T12:50:31.369Z,44.40
2019-06-15T12:51:38.856Z,43.80
2019-06-15T12:52:44.781Z,44.40
2019-06-15T12:53:50.097Z,44.00
2019-06-15T12:54:56.636Z,43.50
2019-06-15T12:56:02.041Z,42.70
2019-06-15T12:57:08.272Z,43.50
2019-06-15T12:58:13.518Z,43.10
2019-06-15T12:59:20.376Z,43.80
2019-06-15T13:00:34.324Z,43.40
2019-06-15T13:01:40.714Z,42.70
2019-06-15T13:02:46.118Z,42.70
2019-06-15T13:03:52.061Z,42.80
2019-06-15T13:04:57.552Z,42.80
2019-06-15T13:06:03.481Z,42.80
2019-06-15T13:07:08.878Z,42.90
2019-06-15T13:08:15.145Z,42.40
2019-06-15T13:09:20.628Z,41.20
2019-06-15T13:10:27.345Z,41.50
2019-06-15T13:11:32.566Z,41.80
2019-06-15T13:12:38.540Z,40.80
2019-06-15T13:13:44.430Z,40.30
2019-06-15T13:14:50.338Z,40.60
2019-06-15T13:15:56.039Z,40.50
2019-06-15T13:17:02.232Z,39.00
2019-06-15T13:18:07.892Z,38.60
2019-06-15T13:19:14.283Z,38.60
2019-06-15T13:20:21.858Z,39.30
2019-06-15T13:21:28.509Z,39.20
2019-06-15T13:22:34.201Z,38.70
2019-06-15T13:23:40.456Z,38.50
2019-06-15T13:24:46.185Z,38.90
2019-06-15T13:25:52.196Z,38.70
2019-06-15T13:26:57.551Z,38.60
2019-06-15T13:28:04.209Z,38.80
2019-06-15T13:29:09.613Z,39.00
2019-06-15T13:30:21.789Z,38.80
2019-06-15T13:31:27.648Z,39.00
2019-06-15T13:32:33.830Z,38.50
2019-06-15T13:33:38.920Z,38.30
2019-06-15T13:34:44.923Z,37.80
2019-06-15T13:35:50.591Z,38.10
2019-06-15T13:36:57.014Z,38.00
2019-06-15T13:38:02.488Z,38.10
2019-06-15T13:39:09.210Z,37.70
2019-06-15T13:40:15.568Z,37.80
2019-06-15T13:41:24.399Z,38.00
2019-06-15T13:42:28.257Z,38.60
2019-06-15T13:43:34.370Z,38.60
2019-06-15T13:44:40.096Z,38.10
2019-06-15T13:45:46.403Z,38.50
2019-06-15T13:46:52.434Z,38.20
2019-06-15T13:47:58.415Z,38.80
2019-06-15T13:49:04.471Z,38.30
2019-06-15T13:50:11.123Z,38.40
2019-06-15T13:51:16.508Z,38.10
2019-06-15T13:52:22.483Z,38.00
2019-06-15T13:53:28.200Z,38.10
2019-06-15T13:54:34.241Z,38.50
2019-06-15T13:55:39.882Z,38.80
2019-06-15T13:56:46.113Z,38.60
2019-06-15T13:57:51.812Z,38.80
2019-06-15T13:58:58.198Z,38.50
2019-06-15T14:00:04.040Z,38.40
2019-06-15T14:01:10.417Z,39.00
2019-06-15T14:02:15.952Z,38.90
2019-06-15T14:03:22.304Z,39.00
2019-06-15T14:04:28.094Z,38.70
2019-06-15T14:05:34.642Z,39.20
2019-06-15T14:06:40.049Z,39.20
2019-06-15T14:07:45.865Z,39.30
2019-06-15T14:08:51.517Z,39.30
2019-06-15T14:09:57.867Z,39.30